CDT,Max TemperatureF,Mean TemperatureF,Min TemperatureF,Max Dew PointF,MeanDew PointF,Min DewpointF,Max Humidity, Mean Humidity, Min Humidity, Max Sea Level PressureIn, Mean Sea Level PressureIn, Min Sea Level PressureIn, Max VisibilityMiles, Mean VisibilityMiles, Min VisibilityMiles, Max Wind SpeedMPH, Mean Wind SpeedMPH, Max Gust SpeedMPH,PrecipitationIn, CloudCover, Events, WindDirDegrees
2012-9-1,84,68,51,55,50,43,88,52,26,30.14,29.97,29.78,10,10,9,21,8,34,0.00,0,,153
2012-9-2,82,74,66,66,58,54,78,61,42,29.80,29.75,29.71,10,10,6,20,13,32,0.00,0,Rain-Thunderstorm,203
2012-9-3,75,62,50,57,50,43,88,62,38,29.88,29.84,29.81,10,10,10,15,5,23,0.00,0,,221
2012-9-4,82,65,48,57,48,39,100,62,23,29.87,29.81,29.73,10,10,6,21,6,34,0.00,0,,258
2012-9-5,75,64,51,48,45,39,88,54,36,29.87,29.84,29.81,10,10,8,20,10,28,0.00,2,,289
2012-9-6,66,57,48,54,48,43,94,72,43,30.03,29.94,29.87,10,10,3,14,6,17,0.04,5,Rain,324
2012-9-7,68,59,50,48,45,41,94,64,40,30.12,30.08,30.01,10,10,9,17,9,23,0.00,4,,317
2012-9-8,66,55,44,48,44,39,87,58,43,30.18,30.03,29.89,10,10,10,29,13,38,0.00,3,,323
2012-9-9,75,55,35,46,40,36,100,60,25,30.21,30.08,29.87,10,10,10,15,6,23,0.00,0,,204
2012-9-10,84,68,51,54,46,39,72,52,28,29.86,29.65,29.53,10,10,8,20,11,30,0.00,0,,183
2012-9-11,69,61,53,52,39,28,88,44,23,29.90,29.72,29.57,10,10,8,22,8,29,0.00,0,Rain,295
2012-9-12,55,54,53,32,29,27,44,38,33,29.93,29.92,29.90,10,10,10,16,10,21,0.00,0,,257
2012-9-13,,,,,,,,,,,,,,,,,,,,,,
2012-9-14,73,60,48,39,35,32,54,37,23,30.36,30.25,30.15,10,10,8,13,7,18,0.00,0,,182
2012-9-15,82,62,42,48,38,32,71,44,21,30.14,29.96,29.83,10,10,5,17,9,23,0.00,0,,180
2012-9-16,60,50,39,45,39,32,82,62,44,30.13,30.07,29.93,10,10,10,16,11,24,0.00,0,Rain,347
2012-9-17,51,42,32,43,37,32,100,82,58,30.15,30.11,30.07,10,9,2,14,5,23,0.06,2,Rain,317
2012-9-18,62,48,35,39,35,32,100,65,32,30.07,29.86,29.55,10,10,10,20,6,26,0.00,1,,182
2012-9-19,62,55,48,45,39,36,67,54,39,29.89,29.69,29.51,10,10,3,29,15,39,0.00,3,,313
2012-9-20,62,52,41,39,35,30,71,55,34,29.92,29.88,29.84,10,10,5,21,9,32,0.00,2,Rain,303
2012-9-21,59,46,32,41,32,25,100,62,36,30.16,29.94,29.84,10,10,4,31,10,43,0.00,3,Rain-Thunderstorm,323
2012-9-22,55,44,32,34,29,25,87,63,35,30.34,30.28,30.17,10,10,3,15,9,23,0.00,1,Rain,328
2012-9-23,64,45,26,34,26,19,100,57,19,30.33,30.22,29.97,10,10,9,12,4,18,0.00,0,,255
2012-9-24,68,55,37,43,33,25,81,41,28,29.96,29.84,29.77,10,10,10,20,12,28,0.00,0,,319
2012-9-25,57,44,32,36,33,28,100,69,41,30.06,30.00,29.94,10,10,5,13,5,16,0.00,3,,333
2012-9-26,64,46,28,36,30,25,93,63,30,30.19,30.13,30.06,10,9,2,8,3,,0.00,0,,187
2012-9-27,75,57,39,39,34,30,75,50,25,30.17,30.12,30.05,10,9,2,15,7,20,0.00,0,Thunderstorm,168
2012-9-28,75,58,41,43,38,34,87,55,25,30.15,30.09,30.06,10,8,2,7,2,,0.00,0,,342
2012-9-29,84,63,42,45,35,28,87,47,13,30.08,30.01,29.91,10,9,4,18,5,22,0.00,0,,179
2012-9-30,78,64,50,50,40,32,58,42,30,30.00,29.87,29.81,10,10,8,18,9,29,0.00,0,,269